sensor_id;sensor_type;location;lat;lon;timestamp;P1;durP1;ratioP1;P2;durP2;ratioP2
50569;SDS011;36525;49.398;7.614;2022-07-23T00:04:04;10.18;;;7.97;;
50569;SDS011;36525;49.398;7.614;2022-07-23T00:06:40;10.13;;;8.13;;
50569;SDS011;36525;49.398;7.614;2022-07-23T00:09:20;9.93;;;7.50;;
50569;SDS011;36525;49.398;7.614;2022-07-23T00:12:05;9.70;;;7.90;;
50569;SDS011;36525;49.398;7.614;2022-07-23T00:14:56;10.20;;;7.85;;
50569;SDS011;36525;49.398;7.614;2022-07-23T00:21:44;10.38;;;7.55;;
50569;SDS011;36525;49.398;7.614;2022-07-23T00:24:17;9.10;;;8.10;;
50569;SDS011;36525;49.398;7.614;2022-07-23T00:26:57;12.52;;;9.13;;
50569;SDS011;36525;49.398;7.614;2022-07-23T00:29:36;14.88;;;8.85;;
50569;SDS011;36525;49.398;7.614;2022-07-23T00:32:10;10.85;;;8.25;;
50569;SDS011;36525;49.398;7.614;2022-07-23T00:44:29;20.17;;;7.40;;
50569;SDS011;36525;49.398;7.614;2022-07-23T00:47:19;10.18;;;7.93;;
50569;SDS011;36525;49.398;7.614;2022-07-23T00:53:22;8.07;;;6.93;;
50569;SDS011;36525;49.398;7.614;2022-07-23T00:55:49;9.27;;;8.25;;
50569;SDS011;36525;49.398;7.614;2022-07-23T00:58:23;12.40;;;9.95;;
50569;SDS011;36525;49.398;7.614;2022-07-23T01:00:55;16.40;;;8.35;;
50569;SDS011;36525;49.398;7.614;2022-07-23T01:03:34;9.10;;;8.00;;
50569;SDS011;36525;49.398;7.614;2022-07-23T01:12:24;12.02;;;8.70;;
50569;SDS011;36525;49.398;7.614;2022-07-23T01:15:06;11.27;;;8.25;;
50569;SDS011;36525;49.398;7.614;2022-07-23T01:21:40;10.95;;;8.38;;
50569;SDS011;36525;49.398;7.614;2022-07-23T01:24:30;9.15;;;7.35;;
50569;SDS011;36525;49.398;7.614;2022-07-23T01:27:06;12.98;;;8.45;;
50569;SDS011;36525;49.398;7.614;2022-07-23T01:29:46;8.95;;;7.63;;
50569;SDS011;36525;49.398;7.614;2022-07-23T01:32:19;11.85;;;8.35;;
50569;SDS011;36525;49.398;7.614;2022-07-23T01:35:01;9.60;;;8.50;;
50569;SDS011;36525;49.398;7.614;2022-07-23T01:37:29;9.88;;;8.80;;
50569;SDS011;36525;49.398;7.614;2022-07-23T01:40:15;12.40;;;9.63;;
50569;SDS011;36525;49.398;7.614;2022-07-23T01:42:55;8.95;;;7.95;;
50569;SDS011;36525;49.398;7.614;2022-07-23T01:45:41;7.97;;;7.18;;
50569;SDS011;36525;49.398;7.614;2022-07-23T01:48:25;12.25;;;8.93;;
50569;SDS011;36525;49.398;7.614;2022-07-23T01:54:49;8.63;;;7.72;;
50569;SDS011;36525;49.398;7.614;2022-07-23T01:58:09;13.50;;;8.80;;
50569;SDS011;36525;49.398;7.614;2022-07-23T02:00:45;9.05;;;7.57;;
50569;SDS011;36525;49.398;7.614;2022-07-23T02:03:35;11.10;;;8.30;;
50569;SDS011;36525;49.398;7.614;2022-07-23T02:06:23;10.18;;;7.95;;
50569;SDS011;36525;49.398;7.614;2022-07-23T02:08:50;9.27;;;7.78;;
50569;SDS011;36525;49.398;7.614;2022-07-23T02:15:02;10.77;;;9.68;;
50569;SDS011;36525;49.398;7.614;2022-07-23T02:17:30;11.02;;;8.35;;
50569;SDS011;36525;49.398;7.614;2022-07-23T02:27:17;10.18;;;8.75;;
50569;SDS011;36525;49.398;7.614;2022-07-23T02:29:50;11.20;;;9.30;;
50569;SDS011;36525;49.398;7.614;2022-07-23T02:32:24;11.90;;;8.38;;
50569;SDS011;36525;49.398;7.614;2022-07-23T02:35:00;11.50;;;8.35;;
50569;SDS011;36525;49.398;7.614;2022-07-23T02:37:27;10.50;;;8.70;;
50569;SDS011;36525;49.398;7.614;2022-07-23T02:40:09;9.73;;;8.07;;
50569;SDS011;36525;49.398;7.614;2022-07-23T02:49:07;10.95;;;7.55;;
50569;SDS011;36525;49.398;7.614;2022-07-23T02:55:10;13.80;;;9.52;;
50569;SDS011;36525;49.398;7.614;2022-07-23T02:57:37;12.93;;;9.30;;
50569;SDS011;36525;49.398;7.614;2022-07-23T03:00:05;17.13;;;10.98;;
50569;SDS011;36525;49.398;7.614;2022-07-23T03:05:55;10.88;;;9.65;;
50569;SDS011;36525;49.398;7.614;2022-07-23T03:08:22;12.27;;;9.65;;
50569;SDS011;36525;49.398;7.614;2022-07-23T03:10:49;11.38;;;9.55;;
50569;SDS011;36525;49.398;7.614;2022-07-23T03:16:07;10.43;;;9.30;;
50569;SDS011;36525;49.398;7.614;2022-07-23T03:18:42;10.82;;;9.43;;
50569;SDS011;36525;49.398;7.614;2022-07-23T03:21:15;13.00;;;10.38;;
50569;SDS011;36525;49.398;7.614;2022-07-23T03:26:40;11.20;;;8.98;;
50569;SDS011;36525;49.398;7.614;2022-07-23T03:29:19;12.40;;;8.60;;
50569;SDS011;36525;49.398;7.614;2022-07-23T03:31:45;12.40;;;9.63;;
50569;SDS011;36525;49.398;7.614;2022-07-23T03:34:12;12.02;;;9.70;;
50569;SDS011;36525;49.398;7.614;2022-07-23T03:37:11;11.50;;;9.13;;
50569;SDS011;36525;49.398;7.614;2022-07-23T03:39:42;12.52;;;8.35;;
50569;SDS011;36525;49.398;7.614;2022-07-23T03:42:12;10.70;;;8.25;;
50569;SDS011;36525;49.398;7.614;2022-07-23T03:44:51;12.80;;;8.73;;
50569;SDS011;36525;49.398;7.614;2022-07-23T03:50:58;13.93;;;10.07;;
50569;SDS011;36525;49.398;7.614;2022-07-23T04:02:34;12.10;;;9.10;;
50569;SDS011;36525;49.398;7.614;2022-07-23T04:08:14;11.95;;;9.32;;
50569;SDS011;36525;49.398;7.614;2022-07-23T04:10:44;12.05;;;9.13;;
50569;SDS011;36525;49.398;7.614;2022-07-23T04:13:14;10.15;;;8.10;;
50569;SDS011;36525;49.398;7.614;2022-07-23T04:15:40;11.80;;;8.88;;
50569;SDS011;36525;49.398;7.614;2022-07-23T04:18:10;9.82;;;8.30;;
50569;SDS011;36525;49.398;7.614;2022-07-23T04:20:37;12.55;;;10.40;;
50569;SDS011;36525;49.398;7.614;2022-07-23T04:23:37;11.43;;;8.70;;
50569;SDS011;36525;49.398;7.614;2022-07-23T04:26:04;10.65;;;8.60;;
50569;SDS011;36525;49.398;7.614;2022-07-23T04:28:49;12.90;;;10.10;;
50569;SDS011;36525;49.398;7.614;2022-07-23T04:31:22;11.75;;;9.55;;
50569;SDS011;36525;49.398;7.614;2022-07-23T04:33:58;12.40;;;10.27;;
50569;SDS011;36525;49.398;7.614;2022-07-23T04:39:36;12.35;;;10.60;;
50569;SDS011;36525;49.398;7.614;2022-07-23T04:44:58;10.68;;;8.60;;
50569;SDS011;36525;49.398;7.614;2022-07-23T04:50:25;11.57;;;9.32;;
50569;SDS011;36525;49.398;7.614;2022-07-23T04:58:58;10.60;;;9.37;;
50569;SDS011;36525;49.398;7.614;2022-07-23T05:01:25;11.32;;;9.90;;
50569;SDS011;36525;49.398;7.614;2022-07-23T05:07:11;11.15;;;9.32;;
50569;SDS011;36525;49.398;7.614;2022-07-23T05:09:44;11.27;;;9.50;;
50569;SDS011;36525;49.398;7.614;2022-07-23T05:12:24;11.30;;;8.90;;
50569;SDS011;36525;49.398;7.614;2022-07-23T05:15:00;10.45;;;8.82;;
50569;SDS011;36525;49.398;7.614;2022-07-23T05:17:43;9.13;;;8.23;;
50569;SDS011;36525;49.398;7.614;2022-07-23T05:20:37;11.57;;;9.93;;
50569;SDS011;36525;49.398;7.614;2022-07-23T05:26:27;12.20;;;9.52;;
50569;SDS011;36525;49.398;7.614;2022-07-23T05:28:55;10.50;;;9.40;;
50569;SDS011;36525;49.398;7.614;2022-07-23T05:38:23;11.18;;;9.00;;
50569;SDS011;36525;49.398;7.614;2022-07-23T05:40:53;14.20;;;9.32;;
50569;SDS011;36525;49.398;7.614;2022-07-23T05:43:29;12.27;;;9.13;;
50569;SDS011;36525;49.398;7.614;2022-07-23T05:46:08;13.38;;;9.25;;
50569;SDS011;36525;49.398;7.614;2022-07-23T05:52:24;9.75;;;8.43;;
50569;SDS011;36525;49.398;7.614;2022-07-23T05:54:54;11.77;;;9.60;;
50569;SDS011;36525;49.398;7.614;2022-07-23T05:57:41;11.43;;;9.90;;
50569;SDS011;36525;49.398;7.614;2022-07-23T06:04:23;9.98;;;8.95;;
50569;SDS011;36525;49.398;7.614;2022-07-23T06:06:59;12.73;;;9.43;;
50569;SDS011;36525;49.398;7.614;2022-07-23T06:09:26;12.27;;;10.20;;
50569;SDS011;36525;49.398;7.614;2022-07-23T06:15:53;14.80;;;10.27;;
50569;SDS011;36525;49.398;7.614;2022-07-23T06:18:19;10.52;;;8.65;;
50569;SDS011;36525;49.398;7.614;2022-07-23T06:24:14;12.57;;;8.93;;
50569;SDS011;36525;49.398;7.614;2022-07-23T06:26:44;10.38;;;8.63;;
50569;SDS011;36525;49.398;7.614;2022-07-23T06:29:11;12.55;;;9.95;;
50569;SDS011;36525;49.398;7.614;2022-07-23T06:31:45;11.20;;;9.27;;
50569;SDS011;36525;49.398;7.614;2022-07-23T06:34:13;10.85;;;9.07;;
50569;SDS011;36525;49.398;7.614;2022-07-23T06:36:48;14.13;;;10.75;;
50569;SDS011;36525;49.398;7.614;2022-07-23T06:39:45;10.35;;;8.35;;
50569;SDS011;36525;49.398;7.614;2022-07-23T06:46:18;11.13;;;8.73;;
50569;SDS011;36525;49.398;7.614;2022-07-23T06:48:47;13.68;;;9.43;;
50569;SDS011;36525;49.398;7.614;2022-07-23T06:51:14;8.73;;;7.60;;
50569;SDS011;36525;49.398;7.614;2022-07-23T06:53:41;13.27;;;7.90;;
50569;SDS011;36525;49.398;7.614;2022-07-23T06:56:08;11.65;;;8.77;;
50569;SDS011;36525;49.398;7.614;2022-07-23T06:58:35;11.18;;;9.45;;
50569;SDS011;36525;49.398;7.614;2022-07-23T07:01:02;11.00;;;8.07;;
50569;SDS011;36525;49.398;7.614;2022-07-23T07:03:30;10.02;;;8.57;;
50569;SDS011;36525;49.398;7.614;2022-07-23T07:05:57;9.98;;;8.50;;
50569;SDS011;36525;49.398;7.614;2022-07-23T07:08:24;10.05;;;8.15;;
50569;SDS011;36525;49.398;7.614;2022-07-23T07:10:51;10.55;;;8.10;;
50569;SDS011;36525;49.398;7.614;2022-07-23T07:13:18;9.98;;;8.13;;
50569;SDS011;36525;49.398;7.614;2022-07-23T07:15:45;11.07;;;8.50;;
50569;SDS011;36525;49.398;7.614;2022-07-23T07:18:12;10.93;;;8.27;;
50569;SDS011;36525;49.398;7.614;2022-07-23T07:20:39;12.85;;;10.48;;
50569;SDS011;36525;49.398;7.614;2022-07-23T07:23:06;12.68;;;9.77;;
50569;SDS011;36525;49.398;7.614;2022-07-23T07:25:33;11.40;;;8.40;;
50569;SDS011;36525;49.398;7.614;2022-07-23T07:28:00;8.60;;;6.88;;
50569;SDS011;36525;49.398;7.614;2022-07-23T07:30:27;10.75;;;7.95;;
50569;SDS011;36525;49.398;7.614;2022-07-23T07:32:59;12.93;;;8.15;;
50569;SDS011;36525;49.398;7.614;2022-07-23T07:35:26;8.65;;;7.43;;
50569;SDS011;36525;49.398;7.614;2022-07-23T07:37:53;10.90;;;7.90;;
50569;SDS011;36525;49.398;7.614;2022-07-23T07:40:24;8.00;;;6.72;;
50569;SDS011;36525;49.398;7.614;2022-07-23T07:42:58;10.80;;;7.75;;
50569;SDS011;36525;49.398;7.614;2022-07-23T07:45:26;12.00;;;8.55;;
50569;SDS011;36525;49.398;7.614;2022-07-23T07:47:53;10.55;;;8.27;;
50569;SDS011;36525;49.398;7.614;2022-07-23T07:50:20;11.18;;;8.93;;
50569;SDS011;36525;49.398;7.614;2022-07-23T07:52:48;12.50;;;10.80;;
50569;SDS011;36525;49.398;7.614;2022-07-23T07:55:15;10.40;;;8.50;;
50569;SDS011;36525;49.398;7.614;2022-07-23T07:57:43;11.75;;;8.38;;
50569;SDS011;36525;49.398;7.614;2022-07-23T08:00:30;10.55;;;7.68;;
50569;SDS011;36525;49.398;7.614;2022-07-23T08:02:58;12.85;;;9.93;;
50569;SDS011;36525;49.398;7.614;2022-07-23T08:05:27;12.15;;;8.90;;
50569;SDS011;36525;49.398;7.614;2022-07-23T08:07:56;9.75;;;7.50;;
50569;SDS011;36525;49.398;7.614;2022-07-23T08:10:24;9.10;;;8.10;;
50569;SDS011;36525;49.398;7.614;2022-07-23T08:12:53;10.90;;;9.10;;
50569;SDS011;36525;49.398;7.614;2022-07-23T08:15:26;11.52;;;8.63;;
50569;SDS011;36525;49.398;7.614;2022-07-23T08:17:54;11.52;;;9.50;;
50569;SDS011;36525;49.398;7.614;2022-07-23T08:20:22;11.25;;;9.20;;
50569;SDS011;36525;49.398;7.614;2022-07-23T08:27:54;10.00;;;7.78;;
50569;SDS011;36525;49.398;7.614;2022-07-23T08:30:22;10.57;;;8.70;;
50569;SDS011;36525;49.398;7.614;2022-07-23T08:32:53;10.85;;;8.80;;
50569;SDS011;36525;49.398;7.614;2022-07-23T08:35:33;9.57;;;8.18;;
50569;SDS011;36525;49.398;7.614;2022-07-23T08:38:03;11.75;;;7.65;;
50569;SDS011;36525;49.398;7.614;2022-07-23T08:40:35;10.60;;;7.40;;
50569;SDS011;36525;49.398;7.614;2022-07-23T08:43:10;9.13;;;7.47;;
50569;SDS011;36525;49.398;7.614;2022-07-23T08:45:41;9.20;;;7.05;;
50569;SDS011;36525;49.398;7.614;2022-07-23T08:48:11;8.80;;;7.55;;
50569;SDS011;36525;49.398;7.614;2022-07-23T08:50:43;8.68;;;7.13;;
50569;SDS011;36525;49.398;7.614;2022-07-23T08:53:14;9.32;;;7.60;;
50569;SDS011;36525;49.398;7.614;2022-07-23T08:55:46;10.52;;;7.43;;
50569;SDS011;36525;49.398;7.614;2022-07-23T08:58:17;7.88;;;6.90;;
50569;SDS011;36525;49.398;7.614;2022-07-23T09:00:52;9.48;;;7.05;;
50569;SDS011;36525;49.398;7.614;2022-07-23T09:03:21;7.88;;;6.82;;
50569;SDS011;36525;49.398;7.614;2022-07-23T09:08:20;9.82;;;7.68;;
50569;SDS011;36525;49.398;7.614;2022-07-23T09:10:55;8.18;;;6.30;;
50569;SDS011;36525;49.398;7.614;2022-07-23T09:16:13;6.95;;;5.43;;
50569;SDS011;36525;49.398;7.614;2022-07-23T09:18:55;9.75;;;7.40;;
50569;SDS011;36525;49.398;7.614;2022-07-23T09:21:28;8.60;;;6.43;;
50569;SDS011;36525;49.398;7.614;2022-07-23T09:24:12;8.57;;;6.22;;
50569;SDS011;36525;49.398;7.614;2022-07-23T09:26:47;9.32;;;6.20;;
50569;SDS011;36525;49.398;7.614;2022-07-23T09:32:02;9.40;;;6.95;;
50569;SDS011;36525;49.398;7.614;2022-07-23T09:34:34;8.52;;;6.95;;
50569;SDS011;36525;49.398;7.614;2022-07-23T09:37:12;7.03;;;6.10;;
50569;SDS011;36525;49.398;7.614;2022-07-23T09:39:45;7.47;;;6.35;;
50569;SDS011;36525;49.398;7.614;2022-07-23T09:44:52;6.60;;;5.78;;
50569;SDS011;36525;49.398;7.614;2022-07-23T09:47:22;8.13;;;5.37;;
50569;SDS011;36525;49.398;7.614;2022-07-23T09:52:35;6.82;;;4.63;;
50569;SDS011;36525;49.398;7.614;2022-07-23T09:55:10;6.55;;;5.03;;
50569;SDS011;36525;49.398;7.614;2022-07-23T09:57:38;5.95;;;5.30;;
50569;SDS011;36525;49.398;7.614;2022-07-23T10:00:08;7.95;;;5.18;;
50569;SDS011;36525;49.398;7.614;2022-07-23T10:02:37;7.22;;;5.45;;
50569;SDS011;36525;49.398;7.614;2022-07-23T10:05:05;8.35;;;5.20;;
50569;SDS011;36525;49.398;7.614;2022-07-23T10:07:35;6.68;;;4.82;;
50569;SDS011;36525;49.398;7.614;2022-07-23T10:12:32;6.28;;;4.35;;
50569;SDS011;36525;49.398;7.614;2022-07-23T10:15:18;8.65;;;5.47;;
50569;SDS011;36525;49.398;7.614;2022-07-23T10:17:45;5.65;;;4.47;;
50569;SDS011;36525;49.398;7.614;2022-07-23T10:20:12;6.50;;;4.93;;
50569;SDS011;36525;49.398;7.614;2022-07-23T10:22:42;14.95;;;5.25;;
50569;SDS011;36525;49.398;7.614;2022-07-23T10:31:59;7.47;;;4.80;;
50569;SDS011;36525;49.398;7.614;2022-07-23T10:34:48;5.32;;;4.05;;
50569;SDS011;36525;49.398;7.614;2022-07-23T10:37:28;5.45;;;4.28;;
50569;SDS011;36525;49.398;7.614;2022-07-23T10:40:11;5.53;;;4.07;;
50569;SDS011;36525;49.398;7.614;2022-07-23T10:42:38;5.63;;;3.67;;
50569;SDS011;36525;49.398;7.614;2022-07-23T10:45:27;5.47;;;4.15;;
50569;SDS011;36525;49.398;7.614;2022-07-23T10:47:56;7.20;;;4.32;;
50569;SDS011;36525;49.398;7.614;2022-07-23T10:50:42;6.53;;;4.65;;
50569;SDS011;36525;49.398;7.614;2022-07-23T10:53:17;8.38;;;4.90;;
50569;SDS011;36525;49.398;7.614;2022-07-23T10:55:45;8.30;;;4.68;;
50569;SDS011;36525;49.398;7.614;2022-07-23T10:58:18;5.88;;;4.03;;
50569;SDS011;36525;49.398;7.614;2022-07-23T11:00:48;5.07;;;3.97;;
50569;SDS011;36525;49.398;7.614;2022-07-23T11:03:49;5.05;;;4.10;;
50569;SDS011;36525;49.398;7.614;2022-07-23T11:06:22;7.72;;;5.00;;
50569;SDS011;36525;49.398;7.614;2022-07-23T11:12:17;9.18;;;5.45;;
50569;SDS011;36525;49.398;7.614;2022-07-23T11:15:20;8.15;;;4.95;;
50569;SDS011;36525;49.398;7.614;2022-07-23T11:20:15;6.47;;;4.38;;
50569;SDS011;36525;49.398;7.614;2022-07-23T11:27:48;5.63;;;4.45;;
50569;SDS011;36525;49.398;7.614;2022-07-23T11:33:16;7.22;;;4.25;;
50569;SDS011;36525;49.398;7.614;2022-07-23T11:35:42;5.60;;;4.43;;
50569;SDS011;36525;49.398;7.614;2022-07-23T11:38:20;6.25;;;4.55;;
50569;SDS011;36525;49.398;7.614;2022-07-23T11:40:52;5.35;;;4.55;;
50569;SDS011;36525;49.398;7.614;2022-07-23T11:43:24;5.63;;;4.00;;
50569;SDS011;36525;49.398;7.614;2022-07-23T11:45:52;6.43;;;5.00;;
50569;SDS011;36525;49.398;7.614;2022-07-23T11:48:25;6.53;;;3.75;;
50569;SDS011;36525;49.398;7.614;2022-07-23T11:50:56;6.60;;;4.50;;
50569;SDS011;36525;49.398;7.614;2022-07-23T11:53:32;9.57;;;4.60;;
50569;SDS011;36525;49.398;7.614;2022-07-23T11:56:06;6.10;;;4.57;;
50569;SDS011;36525;49.398;7.614;2022-07-23T11:58:36;7.65;;;4.45;;
50569;SDS011;36525;49.398;7.614;2022-07-23T12:01:04;7.57;;;4.22;;
50569;SDS011;36525;49.398;7.614;2022-07-23T12:03:31;5.78;;;4.28;;
50569;SDS011;36525;49.398;7.614;2022-07-23T12:05:59;7.53;;;4.15;;
50569;SDS011;36525;49.398;7.614;2022-07-23T12:08:27;6.72;;;4.72;;
50569;SDS011;36525;49.398;7.614;2022-07-23T12:10:54;7.28;;;4.32;;
50569;SDS011;36525;49.398;7.614;2022-07-23T12:13:21;8.45;;;4.80;;
50569;SDS011;36525;49.398;7.614;2022-07-23T12:15:50;10.23;;;4.70;;
50569;SDS011;36525;49.398;7.614;2022-07-23T12:18:21;7.00;;;4.70;;
50569;SDS011;36525;49.398;7.614;2022-07-23T12:20:52;7.03;;;4.60;;
50569;SDS011;36525;49.398;7.614;2022-07-23T12:23:28;5.55;;;4.35;;
50569;SDS011;36525;49.398;7.614;2022-07-23T12:25:55;7.50;;;4.80;;
50569;SDS011;36525;49.398;7.614;2022-07-23T12:28:31;7.38;;;4.55;;
50569;SDS011;36525;49.398;7.614;2022-07-23T12:31:00;7.88;;;5.03;;
50569;SDS011;36525;49.398;7.614;2022-07-23T12:36:05;6.07;;;4.60;;
50569;SDS011;36525;49.398;7.614;2022-07-23T12:38:46;8.40;;;4.22;;
50569;SDS011;36525;49.398;7.614;2022-07-23T12:41:17;5.85;;;4.75;;
50569;SDS011;36525;49.398;7.614;2022-07-23T12:43:44;6.07;;;4.25;;
50569;SDS011;36525;49.398;7.614;2022-07-23T12:46:14;6.72;;;4.60;;
50569;SDS011;36525;49.398;7.614;2022-07-23T12:53:55;6.65;;;4.95;;
50569;SDS011;36525;49.398;7.614;2022-07-23T12:58:58;7.45;;;4.90;;
50569;SDS011;36525;49.398;7.614;2022-07-23T13:01:38;8.52;;;5.35;;
50569;SDS011;36525;49.398;7.614;2022-07-23T13:04:09;6.43;;;5.32;;
50569;SDS011;36525;49.398;7.614;2022-07-23T13:06:53;5.78;;;4.60;;
50569;SDS011;36525;49.398;7.614;2022-07-23T13:09:26;8.18;;;4.63;;
50569;SDS011;36525;49.398;7.614;2022-07-23T13:12:06;7.10;;;4.63;;
50569;SDS011;36525;49.398;7.614;2022-07-23T13:14:36;8.07;;;5.10;;
50569;SDS011;36525;49.398;7.614;2022-07-23T13:17:04;5.40;;;3.88;;
50569;SDS011;36525;49.398;7.614;2022-07-23T13:19:32;7.32;;;4.88;;
50569;SDS011;36525;49.398;7.614;2022-07-23T13:22:00;7.63;;;3.90;;
50569;SDS011;36525;49.398;7.614;2022-07-23T13:24:34;7.05;;;4.57;;
50569;SDS011;36525;49.398;7.614;2022-07-23T13:27:04;6.75;;;3.65;;
50569;SDS011;36525;49.398;7.614;2022-07-23T13:29:33;6.15;;;4.65;;
50569;SDS011;36525;49.398;7.614;2022-07-23T13:32:01;6.75;;;4.13;;
50569;SDS011;36525;49.398;7.614;2022-07-23T13:34:41;5.80;;;4.10;;
50569;SDS011;36525;49.398;7.614;2022-07-23T13:37:08;5.53;;;4.53;;
50569;SDS011;36525;49.398;7.614;2022-07-23T13:39:35;6.13;;;4.03;;
50569;SDS011;36525;49.398;7.614;2022-07-23T13:42:04;6.50;;;4.05;;
50569;SDS011;36525;49.398;7.614;2022-07-23T13:44:34;6.03;;;4.95;;
50569;SDS011;36525;49.398;7.614;2022-07-23T13:47:02;6.50;;;4.78;;
50569;SDS011;36525;49.398;7.614;2022-07-23T13:49:30;8.23;;;5.18;;
50569;SDS011;36525;49.398;7.614;2022-07-23T13:51:57;7.50;;;4.82;;
50569;SDS011;36525;49.398;7.614;2022-07-23T13:54:24;5.97;;;4.47;;
50569;SDS011;36525;49.398;7.614;2022-07-23T13:56:54;7.18;;;4.32;;
50569;SDS011;36525;49.398;7.614;2022-07-23T13:59:22;5.88;;;3.92;;
50569;SDS011;36525;49.398;7.614;2022-07-23T14:01:52;12.20;;;5.05;;
50569;SDS011;36525;49.398;7.614;2022-07-23T14:04:40;7.88;;;4.50;;
50569;SDS011;36525;49.398;7.614;2022-07-23T14:07:07;7.47;;;4.60;;
50569;SDS011;36525;49.398;7.614;2022-07-23T14:09:35;7.65;;;3.67;;
50569;SDS011;36525;49.398;7.614;2022-07-23T14:12:03;6.30;;;4.43;;
50569;SDS011;36525;49.398;7.614;2022-07-23T14:14:31;6.13;;;4.80;;
50569;SDS011;36525;49.398;7.614;2022-07-23T14:17:02;6.05;;;4.68;;
50569;SDS011;36525;49.398;7.614;2022-07-23T14:19:30;7.05;;;3.88;;
50569;SDS011;36525;49.398;7.614;2022-07-23T14:21:58;7.00;;;4.70;;
50569;SDS011;36525;49.398;7.614;2022-07-23T14:24:25;7.13;;;4.60;;
50569;SDS011;36525;49.398;7.614;2022-07-23T14:26:59;6.05;;;4.40;;
50569;SDS011;36525;49.398;7.614;2022-07-23T14:29:28;6.70;;;4.47;;
50569;SDS011;36525;49.398;7.614;2022-07-23T14:31:56;7.53;;;4.50;;
50569;SDS011;36525;49.398;7.614;2022-07-23T14:34:25;6.80;;;4.60;;
50569;SDS011;36525;49.398;7.614;2022-07-23T14:36:53;5.00;;;4.00;;
50569;SDS011;36525;49.398;7.614;2022-07-23T14:39:20;6.32;;;4.38;;
50569;SDS011;36525;49.398;7.614;2022-07-23T14:41:47;6.07;;;3.90;;
50569;SDS011;36525;49.398;7.614;2022-07-23T14:44:14;7.78;;;4.93;;
50569;SDS011;36525;49.398;7.614;2022-07-23T14:46:41;5.32;;;4.05;;
50569;SDS011;36525;49.398;7.614;2022-07-23T14:49:09;7.97;;;4.05;;
50569;SDS011;36525;49.398;7.614;2022-07-23T14:51:36;6.68;;;4.25;;
50569;SDS011;36525;49.398;7.614;2022-07-23T14:54:04;7.68;;;4.13;;
50569;SDS011;36525;49.398;7.614;2022-07-23T14:56:32;6.47;;;4.15;;
50569;SDS011;36525;49.398;7.614;2022-07-23T14:59:00;4.90;;;3.80;;
50569;SDS011;36525;49.398;7.614;2022-07-23T15:01:30;6.10;;;4.50;;
50569;SDS011;36525;49.398;7.614;2022-07-23T15:04:00;5.88;;;3.53;;
50569;SDS011;36525;49.398;7.614;2022-07-23T15:06:47;6.93;;;4.30;;
50569;SDS011;36525;49.398;7.614;2022-07-23T15:09:19;7.20;;;4.50;;
50569;SDS011;36525;49.398;7.614;2022-07-23T15:11:46;6.35;;;4.82;;
50569;SDS011;36525;49.398;7.614;2022-07-23T15:14:14;5.93;;;4.07;;
50569;SDS011;36525;49.398;7.614;2022-07-23T15:16:53;5.70;;;4.43;;
50569;SDS011;36525;49.398;7.614;2022-07-23T15:19:20;7.20;;;4.13;;
50569;SDS011;36525;49.398;7.614;2022-07-23T15:21:47;6.65;;;4.07;;
50569;SDS011;36525;49.398;7.614;2022-07-23T15:24:14;7.63;;;4.50;;
50569;SDS011;36525;49.398;7.614;2022-07-23T15:26:41;6.68;;;3.75;;
50569;SDS011;36525;49.398;7.614;2022-07-23T15:29:08;5.40;;;4.18;;
50569;SDS011;36525;49.398;7.614;2022-07-23T15:31:35;5.75;;;4.60;;
50569;SDS011;36525;49.398;7.614;2022-07-23T15:34:02;9.15;;;4.82;;
50569;SDS011;36525;49.398;7.614;2022-07-23T15:36:32;6.00;;;4.38;;
50569;SDS011;36525;49.398;7.614;2022-07-23T15:39:01;5.45;;;4.07;;
50569;SDS011;36525;49.398;7.614;2022-07-23T15:41:29;6.38;;;3.50;;
50569;SDS011;36525;49.398;7.614;2022-07-23T15:43:56;5.68;;;3.90;;
50569;SDS011;36525;49.398;7.614;2022-07-23T15:46:24;4.15;;;3.28;;
50569;SDS011;36525;49.398;7.614;2022-07-23T15:48:52;6.82;;;3.50;;
50569;SDS011;36525;49.398;7.614;2022-07-23T15:51:20;5.95;;;3.83;;
50569;SDS011;36525;49.398;7.614;2022-07-23T15:53:48;10.35;;;5.45;;
50569;SDS011;36525;49.398;7.614;2022-07-23T15:56:15;4.93;;;3.88;;
50569;SDS011;36525;49.398;7.614;2022-07-23T15:58:42;6.10;;;3.35;;
50569;SDS011;36525;49.398;7.614;2022-07-23T16:01:10;6.90;;;3.67;;
50569;SDS011;36525;49.398;7.614;2022-07-23T16:03:38;6.07;;;3.92;;
50569;SDS011;36525;49.398;7.614;2022-07-23T16:06:06;5.57;;;3.80;;
50569;SDS011;36525;49.398;7.614;2022-07-23T16:08:43;6.05;;;3.17;;
50569;SDS011;36525;49.398;7.614;2022-07-23T16:11:10;4.43;;;3.22;;
50569;SDS011;36525;49.398;7.614;2022-07-23T16:13:39;4.05;;;2.92;;
50569;SDS011;36525;49.398;7.614;2022-07-23T16:16:07;5.85;;;3.05;;
50569;SDS011;36525;49.398;7.614;2022-07-23T16:18:35;4.65;;;3.03;;
50569;SDS011;36525;49.398;7.614;2022-07-23T16:21:03;12.00;;;3.15;;
50569;SDS011;36525;49.398;7.614;2022-07-23T16:23:37;5.38;;;3.13;;
50569;SDS011;36525;49.398;7.614;2022-07-23T16:26:04;5.10;;;2.83;;
50569;SDS011;36525;49.398;7.614;2022-07-23T16:28:31;5.10;;;2.72;;
50569;SDS011;36525;49.398;7.614;2022-07-23T16:30:58;3.92;;;2.80;;
50569;SDS011;36525;49.398;7.614;2022-07-23T16:33:25;4.00;;;2.97;;
50569;SDS011;36525;49.398;7.614;2022-07-23T16:35:53;3.67;;;2.80;;
50569;SDS011;36525;49.398;7.614;2022-07-23T16:38:20;3.92;;;2.45;;
50569;SDS011;36525;49.398;7.614;2022-07-23T16:40:48;3.75;;;2.70;;
50569;SDS011;36525;49.398;7.614;2022-07-23T16:43:15;3.53;;;2.33;;
50569;SDS011;36525;49.398;7.614;2022-07-23T16:45:45;3.40;;;2.22;;
50569;SDS011;36525;49.398;7.614;2022-07-23T16:48:13;5.03;;;2.60;;
50569;SDS011;36525;49.398;7.614;2022-07-23T16:50:40;4.50;;;2.20;;
50569;SDS011;36525;49.398;7.614;2022-07-23T16:53:07;5.63;;;2.63;;
50569;SDS011;36525;49.398;7.614;2022-07-23T16:55:34;3.72;;;2.50;;
50569;SDS011;36525;49.398;7.614;2022-07-23T16:58:01;4.10;;;2.30;;
50569;SDS011;36525;49.398;7.614;2022-07-23T17:00:28;4.72;;;2.22;;
50569;SDS011;36525;49.398;7.614;2022-07-23T17:02:55;3.92;;;2.47;;
50569;SDS011;36525;49.398;7.614;2022-07-23T17:05:22;6.10;;;3.20;;
50569;SDS011;36525;49.398;7.614;2022-07-23T17:07:49;5.88;;;2.75;;
50569;SDS011;36525;49.398;7.614;2022-07-23T17:10:19;4.43;;;2.53;;
50569;SDS011;36525;49.398;7.614;2022-07-23T17:12:47;3.78;;;2.75;;
50569;SDS011;36525;49.398;7.614;2022-07-23T17:15:19;5.30;;;2.85;;
50569;SDS011;36525;49.398;7.614;2022-07-23T17:17:46;3.47;;;2.72;;
50569;SDS011;36525;49.398;7.614;2022-07-23T17:20:14;5.13;;;3.35;;
50569;SDS011;36525;49.398;7.614;2022-07-23T17:22:41;6.95;;;3.00;;
50569;SDS011;36525;49.398;7.614;2022-07-23T17:25:09;5.32;;;3.00;;
50569;SDS011;36525;49.398;7.614;2022-07-23T17:27:43;5.20;;;3.13;;
50569;SDS011;36525;49.398;7.614;2022-07-23T17:30:12;5.68;;;2.97;;
50569;SDS011;36525;49.398;7.614;2022-07-23T17:32:41;5.30;;;2.83;;
50569;SDS011;36525;49.398;7.614;2022-07-23T17:35:08;6.45;;;3.03;;
50569;SDS011;36525;49.398;7.614;2022-07-23T17:37:36;4.68;;;3.30;;
50569;SDS011;36525;49.398;7.614;2022-07-23T17:40:03;4.10;;;3.13;;
50569;SDS011;36525;49.398;7.614;2022-07-23T17:42:31;5.25;;;3.42;;
50569;SDS011;36525;49.398;7.614;2022-07-23T17:44:59;4.68;;;3.28;;
50569;SDS011;36525;49.398;7.614;2022-07-23T17:47:35;9.20;;;3.75;;
50569;SDS011;36525;49.398;7.614;2022-07-23T17:50:02;7.03;;;3.75;;
50569;SDS011;36525;49.398;7.614;2022-07-23T17:52:30;6.03;;;3.30;;
50569;SDS011;36525;49.398;7.614;2022-07-23T17:54:57;6.93;;;3.78;;
50569;SDS011;36525;49.398;7.614;2022-07-23T17:57:24;6.45;;;3.58;;
50569;SDS011;36525;49.398;7.614;2022-07-23T17:59:51;5.88;;;3.63;;
50569;SDS011;36525;49.398;7.614;2022-07-23T18:02:18;7.88;;;3.95;;
50569;SDS011;36525;49.398;7.614;2022-07-23T18:04:45;6.13;;;3.88;;
50569;SDS011;36525;49.398;7.614;2022-07-23T18:07:12;5.13;;;3.60;;
50569;SDS011;36525;49.398;7.614;2022-07-23T18:09:39;5.88;;;3.85;;